sensor_id;sensor_type;location;lat;lon;timestamp;P1;durP1;ratioP1;P2;durP2;ratioP2
45077;SDS011;60508;42.622;25.416;2023-04-25T00:00:33;3.03;;;1.85;;
45077;SDS011;60508;42.622;25.416;2023-04-25T00:02:59;3.28;;;2.97;;
45077;SDS011;60508;42.622;25.416;2023-04-25T00:05:28;2.63;;;2.17;;
45077;SDS011;60508;42.622;25.416;2023-04-25T00:07:55;3.60;;;2.30;;
45077;SDS011;60508;42.622;25.416;2023-04-25T00:10:22;1.80;;;1.70;;
45077;SDS011;60508;42.622;25.416;2023-04-25T00:12:48;3.65;;;2.40;;
45077;SDS011;60508;42.622;25.416;2023-04-25T00:15:14;3.40;;;2.25;;
45077;SDS011;60508;42.622;25.416;2023-04-25T00:17:42;3.75;;;2.22;;
45077;SDS011;60508;42.622;25.416;2023-04-25T00:20:09;2.22;;;1.85;;
45077;SDS011;60508;42.622;25.416;2023-04-25T00:22:36;2.60;;;1.65;;
45077;SDS011;60508;42.622;25.416;2023-04-25T00:25:05;6.10;;;2.13;;
45077;SDS011;60508;42.622;25.416;2023-04-25T00:27:32;1.90;;;1.70;;
45077;SDS011;60508;42.622;25.416;2023-04-25T00:29:59;3.35;;;1.83;;
45077;SDS011;60508;42.622;25.416;2023-04-25T00:32:25;2.63;;;2.17;;
45077;SDS011;60508;42.622;25.416;2023-04-25T00:34:51;3.05;;;2.05;;
45077;SDS011;60508;42.622;25.416;2023-04-25T00:37:18;2.90;;;2.13;;
45077;SDS011;60508;42.622;25.416;2023-04-25T00:39:44;2.15;;;1.95;;
45077;SDS011;60508;42.622;25.416;2023-04-25T00:42:10;2.28;;;2.08;;
45077;SDS011;60508;42.622;25.416;2023-04-25T00:44:38;3.42;;;2.03;;
45077;SDS011;60508;42.622;25.416;2023-04-25T00:47:05;2.40;;;2.20;;
45077;SDS011;60508;42.622;25.416;2023-04-25T00:49:31;2.20;;;1.52;;
45077;SDS011;60508;42.622;25.416;2023-04-25T00:51:58;1.60;;;1.50;;
45077;SDS011;60508;42.622;25.416;2023-04-25T00:54:25;3.88;;;2.10;;
45077;SDS011;60508;42.622;25.416;2023-04-25T00:56:52;1.85;;;1.35;;
45077;SDS011;60508;42.622;25.416;2023-04-25T00:59:19;0.80;;;0.80;;
45077;SDS011;60508;42.622;25.416;2023-04-25T01:01:45;1.83;;;0.77;;
45077;SDS011;60508;42.622;25.416;2023-04-25T01:04:12;1.42;;;1.17;;
45077;SDS011;60508;42.622;25.416;2023-04-25T01:06:39;1.48;;;0.80;;
45077;SDS011;60508;42.622;25.416;2023-04-25T01:09:05;1.65;;;0.70;;
45077;SDS011;60508;42.622;25.416;2023-04-25T01:11:32;0.60;;;0.60;;
45077;SDS011;60508;42.622;25.416;2023-04-25T01:13:58;2.03;;;0.85;;
45077;SDS011;60508;42.622;25.416;2023-04-25T01:16:24;3.22;;;0.90;;
45077;SDS011;60508;42.622;25.416;2023-04-25T01:18:50;4.20;;;1.63;;
45077;SDS011;60508;42.622;25.416;2023-04-25T01:21:16;5.20;;;1.60;;
45077;SDS011;60508;42.622;25.416;2023-04-25T01:23:44;2.67;;;2.47;;
45077;SDS011;60508;42.622;25.416;2023-04-25T01:26:11;3.10;;;2.30;;
45077;SDS011;60508;42.622;25.416;2023-04-25T01:28:38;5.25;;;2.03;;
45077;SDS011;60508;42.622;25.416;2023-04-25T01:31:09;5.32;;;3.53;;
45077;SDS011;60508;42.622;25.416;2023-04-25T01:33:37;3.20;;;2.65;;
45077;SDS011;60508;42.622;25.416;2023-04-25T01:36:03;5.60;;;4.25;;
45077;SDS011;60508;42.622;25.416;2023-04-25T01:38:30;2.70;;;2.50;;
45077;SDS011;60508;42.622;25.416;2023-04-25T01:40:57;3.70;;;2.60;;
45077;SDS011;60508;42.622;25.416;2023-04-25T01:43:24;3.38;;;2.47;;
45077;SDS011;60508;42.622;25.416;2023-04-25T01:45:51;6.57;;;3.53;;
45077;SDS011;60508;42.622;25.416;2023-04-25T01:48:18;6.78;;;2.90;;
45077;SDS011;60508;42.622;25.416;2023-04-25T01:50:46;5.35;;;2.85;;
45077;SDS011;60508;42.622;25.416;2023-04-25T01:53:12;4.07;;;2.88;;
45077;SDS011;60508;42.622;25.416;2023-04-25T01:55:38;3.17;;;2.75;;
45077;SDS011;60508;42.622;25.416;2023-04-25T01:58:09;2.80;;;2.60;;
45077;SDS011;60508;42.622;25.416;2023-04-25T02:00:57;3.63;;;3.33;;
45077;SDS011;60508;42.622;25.416;2023-04-25T02:03:27;3.30;;;2.97;;
45077;SDS011;60508;42.622;25.416;2023-04-25T02:05:54;3.85;;;3.25;;
45077;SDS011;60508;42.622;25.416;2023-04-25T02:08:22;5.53;;;2.80;;
45077;SDS011;60508;42.622;25.416;2023-04-25T02:10:48;3.10;;;2.80;;
45077;SDS011;60508;42.622;25.416;2023-04-25T02:13:18;4.90;;;3.13;;
45077;SDS011;60508;42.622;25.416;2023-04-25T02:15:49;4.25;;;2.58;;
45077;SDS011;60508;42.622;25.416;2023-04-25T02:18:18;3.53;;;2.30;;
45077;SDS011;60508;42.622;25.416;2023-04-25T02:20:44;5.03;;;3.53;;
45077;SDS011;60508;42.622;25.416;2023-04-25T02:23:14;2.78;;;2.55;;
45077;SDS011;60508;42.622;25.416;2023-04-25T02:25:41;3.22;;;2.33;;
45077;SDS011;60508;42.622;25.416;2023-04-25T02:28:07;10.10;;;2.65;;
45077;SDS011;60508;42.622;25.416;2023-04-25T02:30:35;7.05;;;3.33;;
45077;SDS011;60508;42.622;25.416;2023-04-25T02:35:30;2.67;;;2.47;;
45077;SDS011;60508;42.622;25.416;2023-04-25T02:37:56;5.13;;;2.72;;
45077;SDS011;60508;42.622;25.416;2023-04-25T02:40:22;3.40;;;3.03;;
45077;SDS011;60508;42.622;25.416;2023-04-25T02:42:48;4.60;;;3.03;;
45077;SDS011;60508;42.622;25.416;2023-04-25T02:45:14;2.50;;;2.30;;
45077;SDS011;60508;42.622;25.416;2023-04-25T02:47:40;6.20;;;2.83;;
45077;SDS011;60508;42.622;25.416;2023-04-25T02:50:08;2.88;;;2.65;;
45077;SDS011;60508;42.622;25.416;2023-04-25T02:52:34;2.75;;;2.55;;
45077;SDS011;60508;42.622;25.416;2023-04-25T02:55:13;5.93;;;4.80;;
45077;SDS011;60508;42.622;25.416;2023-04-25T02:57:40;6.78;;;2.92;;
45077;SDS011;60508;42.622;25.416;2023-04-25T03:00:07;4.25;;;3.70;;
45077;SDS011;60508;42.622;25.416;2023-04-25T03:02:34;3.72;;;2.30;;
45077;SDS011;60508;42.622;25.416;2023-04-25T03:05:00;4.28;;;2.55;;
45077;SDS011;60508;42.622;25.416;2023-04-25T03:07:27;4.65;;;4.03;;
45077;SDS011;60508;42.622;25.416;2023-04-25T03:09:52;5.70;;;2.60;;
45077;SDS011;60508;42.622;25.416;2023-04-25T03:12:18;8.73;;;2.70;;
45077;SDS011;60508;42.622;25.416;2023-04-25T03:14:45;3.53;;;2.65;;
45077;SDS011;60508;42.622;25.416;2023-04-25T03:17:11;6.20;;;3.15;;
45077;SDS011;60508;42.622;25.416;2023-04-25T03:19:36;3.92;;;3.15;;
45077;SDS011;60508;42.622;25.416;2023-04-25T03:22:02;8.50;;;3.03;;
45077;SDS011;60508;42.622;25.416;2023-04-25T03:24:28;4.22;;;3.67;;
45077;SDS011;60508;42.622;25.416;2023-04-25T03:26:54;3.20;;;2.90;;
45077;SDS011;60508;42.622;25.416;2023-04-25T03:29:20;2.75;;;2.55;;
45077;SDS011;60508;42.622;25.416;2023-04-25T03:31:51;5.88;;;3.95;;
45077;SDS011;60508;42.622;25.416;2023-04-25T03:34:18;3.38;;;2.63;;
45077;SDS011;60508;42.622;25.416;2023-04-25T03:36:44;2.85;;;2.58;;
45077;SDS011;60508;42.622;25.416;2023-04-25T03:39:11;2.90;;;2.60;;
45077;SDS011;60508;42.622;25.416;2023-04-25T03:41:39;3.92;;;3.05;;
45077;SDS011;60508;42.622;25.416;2023-04-25T03:44:12;13.52;;;2.63;;
45077;SDS011;60508;42.622;25.416;2023-04-25T03:46:39;6.38;;;2.78;;
45077;SDS011;60508;42.622;25.416;2023-04-25T03:49:05;2.80;;;2.50;;
45077;SDS011;60508;42.622;25.416;2023-04-25T03:52:01;3.05;;;2.85;;
45077;SDS011;60508;42.622;25.416;2023-04-25T03:54:32;6.25;;;3.50;;
45077;SDS011;60508;42.622;25.416;2023-04-25T03:57:04;2.90;;;2.70;;
45077;SDS011;60508;42.622;25.416;2023-04-25T03:59:33;2.97;;;2.72;;
45077;SDS011;60508;42.622;25.416;2023-04-25T04:01:59;4.32;;;3.45;;
45077;SDS011;60508;42.622;25.416;2023-04-25T04:04:25;3.13;;;2.83;;
45077;SDS011;60508;42.622;25.416;2023-04-25T04:06:51;3.42;;;3.08;;
45077;SDS011;60508;42.622;25.416;2023-04-25T04:09:24;5.22;;;4.10;;
45077;SDS011;60508;42.622;25.416;2023-04-25T04:11:52;4.60;;;3.35;;
45077;SDS011;60508;42.622;25.416;2023-04-25T04:14:17;7.78;;;5.15;;
45077;SDS011;60508;42.622;25.416;2023-04-25T04:16:46;3.80;;;3.50;;
45077;SDS011;60508;42.622;25.416;2023-04-25T04:19:12;3.78;;;3.47;;
45077;SDS011;60508;42.622;25.416;2023-04-25T04:25:04;7.43;;;3.10;;
45077;SDS011;60508;42.622;25.416;2023-04-25T04:27:52;3.20;;;2.97;;
45077;SDS011;60508;42.622;25.416;2023-04-25T04:30:32;3.90;;;3.60;;
45077;SDS011;60508;42.622;25.416;2023-04-25T04:33:04;6.68;;;2.83;;
45077;SDS011;60508;42.622;25.416;2023-04-25T04:35:30;9.73;;;2.95;;
45077;SDS011;60508;42.622;25.416;2023-04-25T04:37:56;5.60;;;3.00;;
45077;SDS011;60508;42.622;25.416;2023-04-25T04:40:26;3.83;;;2.88;;
45077;SDS011;60508;42.622;25.416;2023-04-25T04:43:22;8.63;;;3.38;;
45077;SDS011;60508;42.622;25.416;2023-04-25T04:46:01;7.53;;;3.17;;
45077;SDS011;60508;42.622;25.416;2023-04-25T04:48:50;2.40;;;2.00;;
45077;SDS011;60508;42.622;25.416;2023-04-25T04:51:48;4.30;;;2.83;;
45077;SDS011;60508;42.622;25.416;2023-04-25T04:54:50;12.75;;;8.18;;
45077;SDS011;60508;42.622;25.416;2023-04-25T04:57:36;16.23;;;12.25;;
45077;SDS011;60508;42.622;25.416;2023-04-25T05:00:22;19.00;;;11.48;;
45077;SDS011;60508;42.622;25.416;2023-04-25T05:02:48;15.65;;;11.40;;
45077;SDS011;60508;42.622;25.416;2023-04-25T05:05:33;13.05;;;10.02;;
45077;SDS011;60508;42.622;25.416;2023-04-25T05:08:23;7.60;;;6.47;;
45077;SDS011;60508;42.622;25.416;2023-04-25T05:11:12;5.00;;;4.50;;
45077;SDS011;60508;42.622;25.416;2023-04-25T05:13:51;5.72;;;4.70;;
45077;SDS011;60508;42.622;25.416;2023-04-25T05:16:38;9.70;;;6.30;;
45077;SDS011;60508;42.622;25.416;2023-04-25T05:19:25;8.80;;;6.68;;
45077;SDS011;60508;42.622;25.416;2023-04-25T05:24:54;8.10;;;7.25;;
45077;SDS011;60508;42.622;25.416;2023-04-25T05:27:48;12.55;;;6.45;;
45077;SDS011;60508;42.622;25.416;2023-04-25T05:30:39;13.05;;;7.13;;
45077;SDS011;60508;42.622;25.416;2023-04-25T05:33:18;11.43;;;7.00;;
45077;SDS011;60508;42.622;25.416;2023-04-25T05:35:44;8.00;;;6.85;;
45077;SDS011;60508;42.622;25.416;2023-04-25T05:38:11;6.82;;;6.13;;
45077;SDS011;60508;42.622;25.416;2023-04-25T05:40:56;10.35;;;6.63;;
45077;SDS011;60508;42.622;25.416;2023-04-25T05:43:44;7.18;;;6.47;;
45077;SDS011;60508;42.622;25.416;2023-04-25T05:46:39;10.05;;;5.93;;
45077;SDS011;60508;42.622;25.416;2023-04-25T05:49:23;7.32;;;5.43;;
45077;SDS011;60508;42.622;25.416;2023-04-25T05:52:02;13.68;;;9.88;;
45077;SDS011;60508;42.622;25.416;2023-04-25T05:55:00;32.05;;;27.73;;
45077;SDS011;60508;42.622;25.416;2023-04-25T05:57:27;45.80;;;35.58;;
45077;SDS011;60508;42.622;25.416;2023-04-25T05:59:55;38.40;;;31.05;;
45077;SDS011;60508;42.622;25.416;2023-04-25T06:02:26;39.00;;;32.55;;
45077;SDS011;60508;42.622;25.416;2023-04-25T06:04:53;43.72;;;35.55;;
45077;SDS011;60508;42.622;25.416;2023-04-25T06:07:19;27.65;;;21.40;;
45077;SDS011;60508;42.622;25.416;2023-04-25T06:09:46;32.58;;;26.00;;
45077;SDS011;60508;42.622;25.416;2023-04-25T06:12:12;34.00;;;27.63;;
45077;SDS011;60508;42.622;25.416;2023-04-25T06:14:38;26.95;;;22.35;;
45077;SDS011;60508;42.622;25.416;2023-04-25T06:17:05;22.75;;;19.17;;
45077;SDS011;60508;42.622;25.416;2023-04-25T06:19:34;20.35;;;15.65;;
45077;SDS011;60508;42.622;25.416;2023-04-25T06:22:02;16.67;;;12.98;;
45077;SDS011;60508;42.622;25.416;2023-04-25T06:24:30;18.70;;;11.87;;
45077;SDS011;60508;42.622;25.416;2023-04-25T06:26:56;16.83;;;9.98;;
45077;SDS011;60508;42.622;25.416;2023-04-25T06:29:22;13.75;;;9.43;;
45077;SDS011;60508;42.622;25.416;2023-04-25T06:31:48;10.18;;;7.95;;
45077;SDS011;60508;42.622;25.416;2023-04-25T06:34:15;15.02;;;7.22;;
45077;SDS011;60508;42.622;25.416;2023-04-25T06:36:41;10.65;;;7.70;;
45077;SDS011;60508;42.622;25.416;2023-04-25T06:39:10;13.47;;;6.53;;
45077;SDS011;60508;42.622;25.416;2023-04-25T06:41:36;10.55;;;7.13;;
45077;SDS011;60508;42.622;25.416;2023-04-25T06:46:35;12.55;;;7.05;;
45077;SDS011;60508;42.622;25.416;2023-04-25T06:49:03;7.15;;;6.45;;
45077;SDS011;60508;42.622;25.416;2023-04-25T06:51:30;10.93;;;6.85;;
45077;SDS011;60508;42.622;25.416;2023-04-25T06:53:57;8.13;;;6.32;;
45077;SDS011;60508;42.622;25.416;2023-04-25T06:56:29;10.48;;;7.60;;
45077;SDS011;60508;42.622;25.416;2023-04-25T06:59:02;9.52;;;7.25;;
45077;SDS011;60508;42.622;25.416;2023-04-25T07:01:39;10.45;;;6.15;;
45077;SDS011;60508;42.622;25.416;2023-04-25T07:04:13;11.05;;;6.95;;
45077;SDS011;60508;42.622;25.416;2023-04-25T07:06:44;10.00;;;6.22;;
45077;SDS011;60508;42.622;25.416;2023-04-25T07:09:15;12.40;;;6.55;;
45077;SDS011;60508;42.622;25.416;2023-04-25T07:11:45;9.38;;;5.40;;
45077;SDS011;60508;42.622;25.416;2023-04-25T07:14:12;9.98;;;6.07;;
45077;SDS011;60508;42.622;25.416;2023-04-25T07:16:39;7.43;;;6.30;;
45077;SDS011;60508;42.622;25.416;2023-04-25T07:19:06;11.18;;;5.75;;
45077;SDS011;60508;42.622;25.416;2023-04-25T07:21:32;8.43;;;5.80;;
45077;SDS011;60508;42.622;25.416;2023-04-25T07:26:33;7.45;;;5.38;;
45077;SDS011;60508;42.622;25.416;2023-04-25T07:29:24;11.90;;;6.53;;
45077;SDS011;60508;42.622;25.416;2023-04-25T07:31:51;5.85;;;5.35;;
45077;SDS011;60508;42.622;25.416;2023-04-25T07:34:19;6.47;;;5.88;;
45077;SDS011;60508;42.622;25.416;2023-04-25T07:36:45;7.10;;;6.07;;
45077;SDS011;60508;42.622;25.416;2023-04-25T07:39:12;10.27;;;6.50;;
45077;SDS011;60508;42.622;25.416;2023-04-25T07:41:38;8.95;;;5.82;;
45077;SDS011;60508;42.622;25.416;2023-04-25T07:44:05;6.72;;;5.95;;
45077;SDS011;60508;42.622;25.416;2023-04-25T07:46:34;10.55;;;6.55;;
45077;SDS011;60508;42.622;25.416;2023-04-25T07:49:00;10.40;;;6.15;;
45077;SDS011;60508;42.622;25.416;2023-04-25T07:51:26;7.93;;;5.47;;
45077;SDS011;60508;42.622;25.416;2023-04-25T07:53:56;7.30;;;5.90;;
45077;SDS011;60508;42.622;25.416;2023-04-25T07:56:22;15.05;;;6.05;;
45077;SDS011;60508;42.622;25.416;2023-04-25T07:58:51;5.35;;;4.90;;
45077;SDS011;60508;42.622;25.416;2023-04-25T08:01:20;7.30;;;4.55;;
45077;SDS011;60508;42.622;25.416;2023-04-25T08:03:57;9.60;;;4.70;;
45077;SDS011;60508;42.622;25.416;2023-04-25T08:06:32;9.30;;;7.07;;
45077;SDS011;60508;42.622;25.416;2023-04-25T08:09:07;9.60;;;6.53;;
45077;SDS011;60508;42.622;25.416;2023-04-25T08:11:39;11.18;;;7.05;;
45077;SDS011;60508;42.622;25.416;2023-04-25T08:14:07;7.38;;;5.68;;
45077;SDS011;60508;42.622;25.416;2023-04-25T08:16:34;8.00;;;4.22;;
45077;SDS011;60508;42.622;25.416;2023-04-25T08:19:02;4.07;;;3.55;;
45077;SDS011;60508;42.622;25.416;2023-04-25T08:21:28;3.58;;;3.25;;
45077;SDS011;60508;42.622;25.416;2023-04-25T08:23:57;5.57;;;3.80;;
45077;SDS011;60508;42.622;25.416;2023-04-25T08:26:28;6.22;;;3.92;;
45077;SDS011;60508;42.622;25.416;2023-04-25T08:28:54;7.00;;;3.63;;
45077;SDS011;60508;42.622;25.416;2023-04-25T08:31:21;4.43;;;4.03;;
45077;SDS011;60508;42.622;25.416;2023-04-25T08:33:54;4.35;;;3.25;;
45077;SDS011;60508;42.622;25.416;2023-04-25T08:36:28;3.25;;;2.63;;
45077;SDS011;60508;42.622;25.416;2023-04-25T08:38:54;4.30;;;2.67;;
45077;SDS011;60508;42.622;25.416;2023-04-25T08:41:21;3.75;;;2.08;;
45077;SDS011;60508;42.622;25.416;2023-04-25T08:43:48;4.70;;;2.38;;
45077;SDS011;60508;42.622;25.416;2023-04-25T08:46:17;6.07;;;2.55;;
45077;SDS011;60508;42.622;25.416;2023-04-25T08:49:11;3.83;;;2.10;;
45077;SDS011;60508;42.622;25.416;2023-04-25T08:51:42;2.03;;;1.65;;
45077;SDS011;60508;42.622;25.416;2023-04-25T08:54:13;3.35;;;1.90;;
45077;SDS011;60508;42.622;25.416;2023-04-25T08:56:41;2.15;;;1.58;;
45077;SDS011;60508;42.622;25.416;2023-04-25T08:59:12;3.53;;;1.88;;
45077;SDS011;60508;42.622;25.416;2023-04-25T09:01:40;1.92;;;1.75;;
45077;SDS011;60508;42.622;25.416;2023-04-25T09:04:06;5.55;;;1.70;;
45077;SDS011;60508;42.622;25.416;2023-04-25T09:06:33;3.42;;;1.35;;
45077;SDS011;60508;42.622;25.416;2023-04-25T09:09:02;2.72;;;1.85;;
45077;SDS011;60508;42.622;25.416;2023-04-25T09:11:32;4.18;;;1.52;;
45077;SDS011;60508;42.622;25.416;2023-04-25T09:14:11;3.65;;;1.63;;
45077;SDS011;60508;42.622;25.416;2023-04-25T09:17:05;4.43;;;2.30;;
45077;SDS011;60508;42.622;25.416;2023-04-25T09:19:53;3.65;;;1.50;;
45077;SDS011;60508;42.622;25.416;2023-04-25T09:22:26;4.07;;;1.95;;
45077;SDS011;60508;42.622;25.416;2023-04-25T09:24:53;5.70;;;2.25;;
45077;SDS011;60508;42.622;25.416;2023-04-25T09:30:13;3.58;;;2.10;;
45077;SDS011;60508;42.622;25.416;2023-04-25T09:33:05;3.95;;;2.75;;
45077;SDS011;60508;42.622;25.416;2023-04-25T09:35:50;5.70;;;2.95;;
45077;SDS011;60508;42.622;25.416;2023-04-25T09:38:42;5.68;;;2.50;;
45077;SDS011;60508;42.622;25.416;2023-04-25T09:41:15;3.38;;;2.25;;
45077;SDS011;60508;42.622;25.416;2023-04-25T09:43:49;3.42;;;2.78;;
45077;SDS011;60508;42.622;25.416;2023-04-25T09:46:16;3.85;;;1.73;;
45077;SDS011;60508;42.622;25.416;2023-04-25T09:48:52;2.67;;;1.60;;
45077;SDS011;60508;42.622;25.416;2023-04-25T09:51:27;4.45;;;2.75;;
45077;SDS011;60508;42.622;25.416;2023-04-25T09:53:55;3.22;;;2.38;;
45077;SDS011;60508;42.622;25.416;2023-04-25T09:59:04;6.00;;;1.85;;
45077;SDS011;60508;42.622;25.416;2023-04-25T10:01:33;4.72;;;2.40;;
45077;SDS011;60508;42.622;25.416;2023-04-25T10:04:19;9.07;;;2.70;;
45077;SDS011;60508;42.622;25.416;2023-04-25T10:06:55;7.15;;;2.30;;
45077;SDS011;60508;42.622;25.416;2023-04-25T10:09:24;4.95;;;2.50;;
45077;SDS011;60508;42.622;25.416;2023-04-25T10:11:51;2.67;;;2.42;;
45077;SDS011;60508;42.622;25.416;2023-04-25T10:14:18;6.20;;;2.55;;
45077;SDS011;60508;42.622;25.416;2023-04-25T10:16:45;3.42;;;2.10;;
45077;SDS011;60508;42.622;25.416;2023-04-25T10:19:13;2.28;;;2.08;;
45077;SDS011;60508;42.622;25.416;2023-04-25T10:21:44;4.65;;;2.53;;
45077;SDS011;60508;42.622;25.416;2023-04-25T10:24:15;9.00;;;2.15;;
45077;SDS011;60508;42.622;25.416;2023-04-25T10:26:42;1.20;;;1.00;;
45077;SDS011;60508;42.622;25.416;2023-04-25T10:29:08;1.77;;;1.40;;
45077;SDS011;60508;42.622;25.416;2023-04-25T10:31:37;1.70;;;1.60;;
45077;SDS011;60508;42.622;25.416;2023-04-25T10:34:12;1.55;;;1.42;;
45077;SDS011;60508;42.622;25.416;2023-04-25T10:36:39;1.92;;;1.77;;
45077;SDS011;60508;42.622;25.416;2023-04-25T10:39:06;3.60;;;2.00;;
45077;SDS011;60508;42.622;25.416;2023-04-25T10:41:47;3.33;;;1.73;;
45077;SDS011;60508;42.622;25.416;2023-04-25T10:44:17;2.05;;;1.85;;
45077;SDS011;60508;42.622;25.416;2023-04-25T10:46:44;2.10;;;1.67;;
45077;SDS011;60508;42.622;25.416;2023-04-25T10:49:15;3.17;;;1.50;;
45077;SDS011;60508;42.622;25.416;2023-04-25T10:52:11;4.43;;;1.70;;
45077;SDS011;60508;42.622;25.416;2023-04-25T10:57:27;4.75;;;1.63;;
45077;SDS011;60508;42.622;25.416;2023-04-25T11:00:07;1.58;;;1.48;;
45077;SDS011;60508;42.622;25.416;2023-04-25T11:02:41;2.13;;;1.30;;
45077;SDS011;60508;42.622;25.416;2023-04-25T11:07:50;8.48;;;1.60;;
45077;SDS011;60508;42.622;25.416;2023-04-25T11:10:18;1.65;;;1.55;;
45077;SDS011;60508;42.622;25.416;2023-04-25T11:12:45;4.30;;;1.40;;
45077;SDS011;60508;42.622;25.416;2023-04-25T11:15:12;2.75;;;1.40;;
45077;SDS011;60508;42.622;25.416;2023-04-25T11:17:38;3.25;;;1.77;;
45077;SDS011;60508;42.622;25.416;2023-04-25T11:20:06;1.45;;;1.00;;
45077;SDS011;60508;42.622;25.416;2023-04-25T11:22:37;2.03;;;1.25;;
45077;SDS011;60508;42.622;25.416;2023-04-25T11:25:09;1.83;;;1.10;;
45077;SDS011;60508;42.622;25.416;2023-04-25T11:30:18;1.85;;;1.35;;
45077;SDS011;60508;42.622;25.416;2023-04-25T11:32:45;1.90;;;1.23;;
45077;SDS011;60508;42.622;25.416;2023-04-25T11:35:12;2.90;;;1.48;;
45077;SDS011;60508;42.622;25.416;2023-04-25T11:37:39;5.13;;;1.48;;
45077;SDS011;60508;42.622;25.416;2023-04-25T11:40:06;3.17;;;1.98;;
45077;SDS011;60508;42.622;25.416;2023-04-25T11:42:34;1.75;;;1.42;;
45077;SDS011;60508;42.622;25.416;2023-04-25T11:45:00;2.13;;;1.02;;
45077;SDS011;60508;42.622;25.416;2023-04-25T11:50:00;1.33;;;1.20;;
45077;SDS011;60508;42.622;25.416;2023-04-25T11:52:35;4.40;;;1.63;;
45077;SDS011;60508;42.622;25.416;2023-04-25T11:55:08;1.80;;;1.63;;
45077;SDS011;60508;42.622;25.416;2023-04-25T11:57:39;1.60;;;1.10;;
45077;SDS011;60508;42.622;25.416;2023-04-25T12:00:10;1.08;;;0.93;;
45077;SDS011;60508;42.622;25.416;2023-04-25T12:02:44;1.73;;;1.17;;
45077;SDS011;60508;42.622;25.416;2023-04-25T12:05:12;0.90;;;0.90;;
45077;SDS011;60508;42.622;25.416;2023-04-25T12:07:39;0.70;;;0.70;;
45077;SDS011;60508;42.622;25.416;2023-04-25T12:10:07;1.33;;;0.75;;
45077;SDS011;60508;42.622;25.416;2023-04-25T12:12:38;1.42;;;0.77;;
45077;SDS011;60508;42.622;25.416;2023-04-25T12:15:14;0.63;;;0.63;;
45077;SDS011;60508;42.622;25.416;2023-04-25T12:17:46;2.45;;;1.17;;
45077;SDS011;60508;42.622;25.416;2023-04-25T12:20:18;1.92;;;0.88;;
45077;SDS011;60508;42.622;25.416;2023-04-25T12:22:47;6.78;;;1.25;;
45077;SDS011;60508;42.622;25.416;2023-04-25T12:28:18;2.53;;;1.42;;
45077;SDS011;60508;42.622;25.416;2023-04-25T12:30:58;3.67;;;1.30;;
45077;SDS011;60508;42.622;25.416;2023-04-25T12:33:29;2.63;;;1.33;;
45077;SDS011;60508;42.622;25.416;2023-04-25T12:36:03;5.90;;;1.00;;
45077;SDS011;60508;42.622;25.416;2023-04-25T12:38:40;2.15;;;1.42;;
45077;SDS011;60508;42.622;25.416;2023-04-25T12:41:08;1.38;;;1.25;;
45077;SDS011;60508;42.622;25.416;2023-04-25T12:43:34;2.00;;;1.42;;
45077;SDS011;60508;42.622;25.416;2023-04-25T12:46:00;2.28;;;1.63;;
45077;SDS011;60508;42.622;25.416;2023-04-25T12:48:27;1.60;;;1.20;;
45077;SDS011;60508;42.622;25.416;2023-04-25T12:50:53;4.28;;;1.08;;
45077;SDS011;60508;42.622;25.416;2023-04-25T12:53:20;2.40;;;1.40;;
45077;SDS011;60508;42.622;25.416;2023-04-25T12:55:47;1.45;;;1.35;;
45077;SDS011;60508;42.622;25.416;2023-04-25T12:58:15;2.78;;;1.35;;
45077;SDS011;60508;42.622;25.416;2023-04-25T13:00:41;2.08;;;0.95;;
45077;SDS011;60508;42.622;25.416;2023-04-25T13:03:08;5.93;;;1.15;;
45077;SDS011;60508;42.622;25.416;2023-04-25T13:05:35;0.98;;;0.93;;
45077;SDS011;60508;42.622;25.416;2023-04-25T13:08:02;2.83;;;1.02;;
45077;SDS011;60508;42.622;25.416;2023-04-25T13:10:28;0.85;;;0.85;;
45077;SDS011;60508;42.622;25.416;2023-04-25T13:12:54;4.00;;;1.85;;
45077;SDS011;60508;42.622;25.416;2023-04-25T13:15:20;6.15;;;1.05;;
45077;SDS011;60508;42.622;25.416;2023-04-25T13:17:47;3.65;;;1.10;;
45077;SDS011;60508;42.622;25.416;2023-04-25T13:20:13;7.15;;;1.42;;
45077;SDS011;60508;42.622;25.416;2023-04-25T13:22:41;2.90;;;1.58;;
45077;SDS011;60508;42.622;25.416;2023-04-25T13:25:07;1.95;;;1.13;;
45077;SDS011;60508;42.622;25.416;2023-04-25T13:27:34;2.28;;;1.08;;
45077;SDS011;60508;42.622;25.416;2023-04-25T13:30:03;6.93;;;1.90;;
45077;SDS011;60508;42.622;25.416;2023-04-25T13:32:36;2.20;;;0.88;;
45077;SDS011;60508;42.622;25.416;2023-04-25T13:35:04;0.75;;;0.75;;
45077;SDS011;60508;42.622;25.416;2023-04-25T13:37:30;2.65;;;0.80;;
45077;SDS011;60508;42.622;25.416;2023-04-25T13:39:59;1.15;;;0.70;;
45077;SDS011;60508;42.622;25.416;2023-04-25T13:42:26;1.60;;;1.20;;
45077;SDS011;60508;42.622;25.416;2023-04-25T13:44:51;1.58;;;0.90;;
45077;SDS011;60508;42.622;25.416;2023-04-25T13:47:18;1.85;;;0.90;;
45077;SDS011;60508;42.622;25.416;2023-04-25T13:49:44;2.22;;;1.67;;
45077;SDS011;60508;42.622;25.416;2023-04-25T13:52:10;2.00;;;1.60;;
45077;SDS011;60508;42.622;25.416;2023-04-25T13:54:36;1.77;;;1.42;;
45077;SDS011;60508;42.622;25.416;2023-04-25T13:57:02;2.20;;;1.63;;
45077;SDS011;60508;42.622;25.416;2023-04-25T13:59:28;3.63;;;1.20;;
45077;SDS011;60508;42.622;25.416;2023-04-25T14:01:54;1.10;;;1.00;;
45077;SDS011;60508;42.622;25.416;2023-04-25T14:04:21;2.25;;;1.13;;
45077;SDS011;60508;42.622;25.416;2023-04-25T14:06:46;2.00;;;1.15;;
45077;SDS011;60508;42.622;25.416;2023-04-25T14:09:13;2.40;;;1.38;;
45077;SDS011;60508;42.622;25.416;2023-04-25T14:11:39;2.25;;;1.15;;
45077;SDS011;60508;42.622;25.416;2023-04-25T14:14:05;3.20;;;1.38;;
45077;SDS011;60508;42.622;25.416;2023-04-25T14:16:31;4.40;;;1.42;;
45077;SDS011;60508;42.622;25.416;2023-04-25T14:18:58;2.47;;;1.75;;
45077;SDS011;60508;42.622;25.416;2023-04-25T14:21:24;2.67;;;1.48;;
45077;SDS011;60508;42.622;25.416;2023-04-25T14:23:51;2.22;;;1.60;;
45077;SDS011;60508;42.622;25.416;2023-04-25T14:26:17;2.80;;;1.55;;
45077;SDS011;60508;42.622;25.416;2023-04-25T14:28:43;4.05;;;2.50;;
45077;SDS011;60508;42.622;25.416;2023-04-25T14:31:09;4.53;;;2.10;;
45077;SDS011;60508;42.622;25.416;2023-04-25T14:33:35;7.20;;;1.50;;
45077;SDS011;60508;42.622;25.416;2023-04-25T14:36:02;4.28;;;1.33;;
45077;SDS011;60508;42.622;25.416;2023-04-25T14:38:28;1.40;;;1.30;;
45077;SDS011;60508;42.622;25.416;2023-04-25T14:40:55;3.35;;;1.55;;
45077;SDS011;60508;42.622;25.416;2023-04-25T14:43:21;2.90;;;2.20;;
45077;SDS011;60508;42.622;25.416;2023-04-25T14:45:48;1.90;;;1.20;;
45077;SDS011;60508;42.622;25.416;2023-04-25T14:48:14;5.65;;;2.05;;
45077;SDS011;60508;42.622;25.416;2023-04-25T14:50:41;1.25;;;0.80;;
45077;SDS011;60508;42.622;25.416;2023-04-25T14:53:07;3.42;;;1.45;;
45077;SDS011;60508;42.622;25.416;2023-04-25T14:55:34;1.42;;;1.33;;
45077;SDS011;60508;42.622;25.416;2023-04-25T14:58:00;4.80;;;1.15;;
45077;SDS011;60508;42.622;25.416;2023-04-25T15:00:27;2.30;;;1.90;;
45077;SDS011;60508;42.622;25.416;2023-04-25T15:02:53;5.50;;;2.35;;
45077;SDS011;60508;42.622;25.416;2023-04-25T15:05:19;7.88;;;1.70;;
45077;SDS011;60508;42.622;25.416;2023-04-25T15:07:46;1.70;;;1.10;;
45077;SDS011;60508;42.622;25.416;2023-04-25T15:10:13;0.80;;;0.80;;
45077;SDS011;60508;42.622;25.416;2023-04-25T15:12:44;2.58;;;0.80;;
45077;SDS011;60508;42.622;25.416;2023-04-25T15:15:11;3.92;;;1.00;;
45077;SDS011;60508;42.622;25.416;2023-04-25T15:17:37;8.50;;;7.65;;
45077;SDS011;60508;42.622;25.416;2023-04-25T15:20:07;0.40;;;0.32;;
45077;SDS011;60508;42.622;25.416;2023-04-25T15:22:38;1.05;;;0.40;;